Longlevel, Pennsylvania
Current Conditions -  °F | °C
As of 7:53 PM on Friday 19 Dec 2014 (Local Time) from KLNS Reporting Station
Few Clouds Few Clouds  
Wind Chill: 24°   Ceiling: Unl
Heat Index: 30°   Visibility: 10mi
Dew Point: 20°   Wind: 6mph
Humidity: 66%   Direction: 320°NW
Pressure: 30.18"   Gusts: NA
Location:  39.9911°N, 76.5247°W
Report Text: KLNS 200053Z 32005KT 10SM FEW038 M01/M07 A3018 RMK AO2 SLP222 T10111067
Loading
Personal Weather Stations






























Interactive Weather Map New forecast layout! Learn more

10-Day Weather Forecast

Advertisements
Track Severe Weather on mobile